sensor_id;sensor_type;location;lat;lon;timestamp;P1;durP1;ratioP1;P2;durP2;ratioP2
39222;SDS011;24936;46.328;11.026;2024-01-07T00:01:08;0.17;;;0.17;;
39222;SDS011;24936;46.328;11.026;2024-01-07T00:03:35;0.13;;;0.13;;
39222;SDS011;24936;46.328;11.026;2024-01-07T00:06:01;0.20;;;0.20;;
39222;SDS011;24936;46.328;11.026;2024-01-07T00:08:27;0.32;;;0.30;;
39222;SDS011;24936;46.328;11.026;2024-01-07T00:10:53;1.25;;;0.38;;
39222;SDS011;24936;46.328;11.026;2024-01-07T00:13:19;0.43;;;0.43;;
39222;SDS011;24936;46.328;11.026;2024-01-07T00:15:48;0.28;;;0.28;;
39222;SDS011;24936;46.328;11.026;2024-01-07T00:18:15;0.30;;;0.30;;
39222;SDS011;24936;46.328;11.026;2024-01-07T00:20:40;0.82;;;0.52;;
39222;SDS011;24936;46.328;11.026;2024-01-07T00:23:06;0.20;;;0.20;;
39222;SDS011;24936;46.328;11.026;2024-01-07T00:25:32;0.30;;;0.30;;
39222;SDS011;24936;46.328;11.026;2024-01-07T00:27:58;0.20;;;0.20;;
39222;SDS011;24936;46.328;11.026;2024-01-07T00:30:24;0.50;;;0.47;;
39222;SDS011;24936;46.328;11.026;2024-01-07T00:32:49;0.40;;;0.40;;
39222;SDS011;24936;46.328;11.026;2024-01-07T00:35:16;0.50;;;0.40;;
39222;SDS011;24936;46.328;11.026;2024-01-07T00:37:42;2.72;;;0.70;;
39222;SDS011;24936;46.328;11.026;2024-01-07T00:40:08;0.50;;;0.50;;
39222;SDS011;24936;46.328;11.026;2024-01-07T00:42:34;2.45;;;0.35;;
39222;SDS011;24936;46.328;11.026;2024-01-07T00:45:00;0.52;;;0.47;;
39222;SDS011;24936;46.328;11.026;2024-01-07T00:47:26;0.30;;;0.30;;
39222;SDS011;24936;46.328;11.026;2024-01-07T00:49:51;0.35;;;0.32;;
39222;SDS011;24936;46.328;11.026;2024-01-07T00:52:17;0.30;;;0.30;;
39222;SDS011;24936;46.328;11.026;2024-01-07T00:54:43;0.30;;;0.30;;
39222;SDS011;24936;46.328;11.026;2024-01-07T00:57:10;0.20;;;0.20;;
39222;SDS011;24936;46.328;11.026;2024-01-07T00:59:37;0.20;;;0.20;;
39222;SDS011;24936;46.328;11.026;2024-01-07T01:02:03;0.20;;;0.20;;
39222;SDS011;24936;46.328;11.026;2024-01-07T01:04:29;0.20;;;0.20;;
39222;SDS011;24936;46.328;11.026;2024-01-07T01:06:55;0.17;;;0.17;;
39222;SDS011;24936;46.328;11.026;2024-01-07T01:09:20;0.40;;;0.40;;
39222;SDS011;24936;46.328;11.026;2024-01-07T01:11:46;0.47;;;0.20;;
39222;SDS011;24936;46.328;11.026;2024-01-07T01:14:12;0.22;;;0.22;;
39222;SDS011;24936;46.328;11.026;2024-01-07T01:16:38;0.32;;;0.32;;
39222;SDS011;24936;46.328;11.026;2024-01-07T01:19:04;0.20;;;0.20;;
39222;SDS011;24936;46.328;11.026;2024-01-07T01:21:29;0.20;;;0.20;;
39222;SDS011;24936;46.328;11.026;2024-01-07T01:23:55;0.10;;;0.10;;
39222;SDS011;24936;46.328;11.026;2024-01-07T01:26:21;0.43;;;0.25;;
39222;SDS011;24936;46.328;11.026;2024-01-07T01:28:46;0.20;;;0.20;;
39222;SDS011;24936;46.328;11.026;2024-01-07T01:31:13;0.20;;;0.20;;
39222;SDS011;24936;46.328;11.026;2024-01-07T01:33:39;0.20;;;0.20;;
39222;SDS011;24936;46.328;11.026;2024-01-07T01:36:05;0.20;;;0.20;;
39222;SDS011;24936;46.328;11.026;2024-01-07T01:38:31;0.20;;;0.20;;
39222;SDS011;24936;46.328;11.026;2024-01-07T01:40:57;0.30;;;0.15;;
39222;SDS011;24936;46.328;11.026;2024-01-07T01:43:24;0.20;;;0.20;;
39222;SDS011;24936;46.328;11.026;2024-01-07T01:48:19;0.20;;;0.20;;
39222;SDS011;24936;46.328;11.026;2024-01-07T01:50:45;0.10;;;0.10;;
39222;SDS011;24936;46.328;11.026;2024-01-07T01:53:12;0.20;;;0.20;;
39222;SDS011;24936;46.328;11.026;2024-01-07T01:55:39;0.20;;;0.20;;
39222;SDS011;24936;46.328;11.026;2024-01-07T01:58:04;0.22;;;0.20;;
39222;SDS011;24936;46.328;11.026;2024-01-07T02:00:34;0.20;;;0.20;;
39222;SDS011;24936;46.328;11.026;2024-01-07T02:02:59;0.20;;;0.20;;
39222;SDS011;24936;46.328;11.026;2024-01-07T02:05:26;0.13;;;0.13;;
39222;SDS011;24936;46.328;11.026;2024-01-07T02:07:52;0.30;;;0.20;;
39222;SDS011;24936;46.328;11.026;2024-01-07T02:10:18;0.20;;;0.20;;
39222;SDS011;24936;46.328;11.026;2024-01-07T02:12:45;0.22;;;0.20;;
39222;SDS011;24936;46.328;11.026;2024-01-07T02:15:10;0.20;;;0.20;;
39222;SDS011;24936;46.328;11.026;2024-01-07T02:17:36;0.10;;;0.10;;
39222;SDS011;24936;46.328;11.026;2024-01-07T02:20:02;0.10;;;0.10;;
39222;SDS011;24936;46.328;11.026;2024-01-07T02:22:27;0.15;;;0.15;;
39222;SDS011;24936;46.328;11.026;2024-01-07T02:24:53;0.20;;;0.20;;
39222;SDS011;24936;46.328;11.026;2024-01-07T02:27:19;0.13;;;0.13;;
39222;SDS011;24936;46.328;11.026;2024-01-07T02:29:44;0.10;;;0.10;;
39222;SDS011;24936;46.328;11.026;2024-01-07T02:32:10;0.30;;;0.25;;
39222;SDS011;24936;46.328;11.026;2024-01-07T02:34:36;0.17;;;0.17;;
39222;SDS011;24936;46.328;11.026;2024-01-07T02:37:01;0.30;;;0.30;;
39222;SDS011;24936;46.328;11.026;2024-01-07T02:39:27;0.15;;;0.15;;
39222;SDS011;24936;46.328;11.026;2024-01-07T02:41:53;1.48;;;0.50;;
39222;SDS011;24936;46.328;11.026;2024-01-07T02:44:18;0.57;;;0.30;;
39222;SDS011;24936;46.328;11.026;2024-01-07T02:46:44;0.55;;;0.35;;
39222;SDS011;24936;46.328;11.026;2024-01-07T02:49:11;0.20;;;0.20;;
39222;SDS011;24936;46.328;11.026;2024-01-07T02:51:38;1.83;;;0.45;;
39222;SDS011;24936;46.328;11.026;2024-01-07T02:54:04;0.35;;;0.20;;
39222;SDS011;24936;46.328;11.026;2024-01-07T02:56:30;0.20;;;0.20;;
39222;SDS011;24936;46.328;11.026;2024-01-07T02:58:56;0.57;;;0.40;;
39222;SDS011;24936;46.328;11.026;2024-01-07T03:01:22;0.30;;;0.30;;
39222;SDS011;24936;46.328;11.026;2024-01-07T03:03:50;0.50;;;0.50;;
39222;SDS011;24936;46.328;11.026;2024-01-07T03:06:16;0.55;;;0.55;;
39222;SDS011;24936;46.328;11.026;2024-01-07T03:08:42;0.32;;;0.30;;
39222;SDS011;24936;46.328;11.026;2024-01-07T03:11:08;0.20;;;0.20;;
39222;SDS011;24936;46.328;11.026;2024-01-07T03:13:34;0.10;;;0.10;;
39222;SDS011;24936;46.328;11.026;2024-01-07T03:15:59;0.20;;;0.20;;
39222;SDS011;24936;46.328;11.026;2024-01-07T03:18:26;0.20;;;0.20;;
39222;SDS011;24936;46.328;11.026;2024-01-07T03:20:52;0.20;;;0.20;;
39222;SDS011;24936;46.328;11.026;2024-01-07T03:23:18;0.10;;;0.10;;
39222;SDS011;24936;46.328;11.026;2024-01-07T03:25:43;0.20;;;0.20;;
39222;SDS011;24936;46.328;11.026;2024-01-07T03:28:09;0.10;;;0.10;;
39222;SDS011;24936;46.328;11.026;2024-01-07T03:30:35;0.20;;;0.20;;
39222;SDS011;24936;46.328;11.026;2024-01-07T03:33:00;0.20;;;0.20;;
39222;SDS011;24936;46.328;11.026;2024-01-07T03:35:26;0.10;;;0.10;;
39222;SDS011;24936;46.328;11.026;2024-01-07T03:37:52;0.20;;;0.20;;
39222;SDS011;24936;46.328;11.026;2024-01-07T03:40:18;0.20;;;0.20;;
39222;SDS011;24936;46.328;11.026;2024-01-07T03:42:43;0.20;;;0.20;;
39222;SDS011;24936;46.328;11.026;2024-01-07T03:45:09;0.20;;;0.20;;
39222;SDS011;24936;46.328;11.026;2024-01-07T03:47:34;0.10;;;0.10;;
39222;SDS011;24936;46.328;11.026;2024-01-07T03:50:00;0.20;;;0.20;;
39222;SDS011;24936;46.328;11.026;2024-01-07T03:52:25;0.10;;;0.10;;
39222;SDS011;24936;46.328;11.026;2024-01-07T03:54:51;0.25;;;0.25;;
39222;SDS011;24936;46.328;11.026;2024-01-07T03:57:16;0.10;;;0.10;;
39222;SDS011;24936;46.328;11.026;2024-01-07T03:59:42;0.20;;;0.20;;
39222;SDS011;24936;46.328;11.026;2024-01-07T04:02:07;0.20;;;0.20;;
39222;SDS011;24936;46.328;11.026;2024-01-07T04:04:33;0.17;;;0.17;;
39222;SDS011;24936;46.328;11.026;2024-01-07T04:06:58;0.63;;;0.30;;
39222;SDS011;24936;46.328;11.026;2024-01-07T04:09:24;0.20;;;0.13;;
39222;SDS011;24936;46.328;11.026;2024-01-07T04:11:49;0.20;;;0.20;;
39222;SDS011;24936;46.328;11.026;2024-01-07T04:14:15;0.20;;;0.20;;
39222;SDS011;24936;46.328;11.026;2024-01-07T04:16:41;0.30;;;0.30;;
39222;SDS011;24936;46.328;11.026;2024-01-07T04:19:06;0.17;;;0.17;;
39222;SDS011;24936;46.328;11.026;2024-01-07T04:21:32;0.10;;;0.10;;
39222;SDS011;24936;46.328;11.026;2024-01-07T04:23:57;0.38;;;0.38;;
39222;SDS011;24936;46.328;11.026;2024-01-07T04:26:23;0.30;;;0.30;;
39222;SDS011;24936;46.328;11.026;2024-01-07T04:28:48;0.20;;;0.20;;
39222;SDS011;24936;46.328;11.026;2024-01-07T04:31:14;0.30;;;0.30;;
39222;SDS011;24936;46.328;11.026;2024-01-07T04:33:40;0.20;;;0.20;;
39222;SDS011;24936;46.328;11.026;2024-01-07T04:36:06;0.30;;;0.30;;
39222;SDS011;24936;46.328;11.026;2024-01-07T04:38:31;0.22;;;0.22;;
39222;SDS011;24936;46.328;11.026;2024-01-07T04:40:57;0.20;;;0.20;;
39222;SDS011;24936;46.328;11.026;2024-01-07T04:43:22;0.30;;;0.30;;
39222;SDS011;24936;46.328;11.026;2024-01-07T04:45:48;0.30;;;0.30;;
39222;SDS011;24936;46.328;11.026;2024-01-07T04:48:13;0.17;;;0.17;;
39222;SDS011;24936;46.328;11.026;2024-01-07T04:50:39;0.20;;;0.20;;
39222;SDS011;24936;46.328;11.026;2024-01-07T04:53:08;0.10;;;0.10;;
39222;SDS011;24936;46.328;11.026;2024-01-07T04:55:34;0.20;;;0.20;;
39222;SDS011;24936;46.328;11.026;2024-01-07T04:58:01;0.13;;;0.13;;
39222;SDS011;24936;46.328;11.026;2024-01-07T05:00:27;0.30;;;0.30;;
39222;SDS011;24936;46.328;11.026;2024-01-07T05:02:52;0.20;;;0.20;;
39222;SDS011;24936;46.328;11.026;2024-01-07T05:05:18;0.20;;;0.20;;
39222;SDS011;24936;46.328;11.026;2024-01-07T05:07:43;0.20;;;0.20;;
39222;SDS011;24936;46.328;11.026;2024-01-07T05:10:09;0.57;;;0.30;;
39222;SDS011;24936;46.328;11.026;2024-01-07T05:12:35;0.10;;;0.10;;
39222;SDS011;24936;46.328;11.026;2024-01-07T05:15:00;0.20;;;0.20;;
39222;SDS011;24936;46.328;11.026;2024-01-07T05:17:25;0.20;;;0.20;;
39222;SDS011;24936;46.328;11.026;2024-01-07T05:19:51;0.10;;;0.10;;
39222;SDS011;24936;46.328;11.026;2024-01-07T05:22:17;0.77;;;0.52;;
39222;SDS011;24936;46.328;11.026;2024-01-07T05:24:42;1.65;;;0.52;;
39222;SDS011;24936;46.328;11.026;2024-01-07T05:27:08;0.50;;;0.50;;
39222;SDS011;24936;46.328;11.026;2024-01-07T05:29:34;1.08;;;0.82;;
39222;SDS011;24936;46.328;11.026;2024-01-07T05:32:00;0.90;;;0.90;;
39222;SDS011;24936;46.328;11.026;2024-01-07T05:34:26;0.90;;;0.90;;
39222;SDS011;24936;46.328;11.026;2024-01-07T05:36:53;0.60;;;0.60;;
39222;SDS011;24936;46.328;11.026;2024-01-07T05:39:18;0.40;;;0.40;;
39222;SDS011;24936;46.328;11.026;2024-01-07T05:41:44;0.20;;;0.20;;
39222;SDS011;24936;46.328;11.026;2024-01-07T05:44:10;0.40;;;0.40;;
39222;SDS011;24936;46.328;11.026;2024-01-07T05:46:39;0.20;;;0.20;;
39222;SDS011;24936;46.328;11.026;2024-01-07T05:49:05;0.20;;;0.20;;
39222;SDS011;24936;46.328;11.026;2024-01-07T05:51:31;0.30;;;0.30;;
39222;SDS011;24936;46.328;11.026;2024-01-07T05:53:57;0.20;;;0.20;;
39222;SDS011;24936;46.328;11.026;2024-01-07T05:56:22;0.10;;;0.10;;
39222;SDS011;24936;46.328;11.026;2024-01-07T05:58:48;0.20;;;0.20;;
39222;SDS011;24936;46.328;11.026;2024-01-07T06:01:18;0.20;;;0.20;;
39222;SDS011;24936;46.328;11.026;2024-01-07T06:03:45;0.35;;;0.25;;
39222;SDS011;24936;46.328;11.026;2024-01-07T06:06:12;0.20;;;0.20;;
39222;SDS011;24936;46.328;11.026;2024-01-07T06:08:37;0.20;;;0.20;;
39222;SDS011;24936;46.328;11.026;2024-01-07T06:11:03;0.70;;;0.47;;
39222;SDS011;24936;46.328;11.026;2024-01-07T06:13:28;0.47;;;0.47;;
39222;SDS011;24936;46.328;11.026;2024-01-07T06:15:54;0.20;;;0.20;;
39222;SDS011;24936;46.328;11.026;2024-01-07T06:18:19;0.35;;;0.35;;
39222;SDS011;24936;46.328;11.026;2024-01-07T06:20:45;0.32;;;0.32;;
39222;SDS011;24936;46.328;11.026;2024-01-07T06:23:10;0.30;;;0.30;;
39222;SDS011;24936;46.328;11.026;2024-01-07T06:25:36;0.43;;;0.43;;
39222;SDS011;24936;46.328;11.026;2024-01-07T06:28:01;0.32;;;0.32;;
39222;SDS011;24936;46.328;11.026;2024-01-07T06:30:27;0.30;;;0.30;;
39222;SDS011;24936;46.328;11.026;2024-01-07T06:32:52;0.20;;;0.20;;
39222;SDS011;24936;46.328;11.026;2024-01-07T06:35:18;0.30;;;0.30;;
39222;SDS011;24936;46.328;11.026;2024-01-07T06:37:43;0.20;;;0.20;;
39222;SDS011;24936;46.328;11.026;2024-01-07T06:40:10;0.28;;;0.28;;
39222;SDS011;24936;46.328;11.026;2024-01-07T06:42:36;0.43;;;0.35;;
39222;SDS011;24936;46.328;11.026;2024-01-07T06:45:03;0.40;;;0.40;;
39222;SDS011;24936;46.328;11.026;2024-01-07T06:47:29;0.20;;;0.20;;
39222;SDS011;24936;46.328;11.026;2024-01-07T06:49:54;0.40;;;0.40;;
39222;SDS011;24936;46.328;11.026;2024-01-07T06:52:19;0.20;;;0.20;;
39222;SDS011;24936;46.328;11.026;2024-01-07T06:54:46;9.82;;;0.85;;
39222;SDS011;24936;46.328;11.026;2024-01-07T06:57:11;1.17;;;1.08;;
39222;SDS011;24936;46.328;11.026;2024-01-07T06:59:37;0.60;;;0.60;;
39222;SDS011;24936;46.328;11.026;2024-01-07T07:02:02;0.43;;;0.43;;
39222;SDS011;24936;46.328;11.026;2024-01-07T07:04:28;0.35;;;0.35;;
39222;SDS011;24936;46.328;11.026;2024-01-07T07:06:53;0.30;;;0.30;;
39222;SDS011;24936;46.328;11.026;2024-01-07T07:09:19;0.50;;;0.50;;
39222;SDS011;24936;46.328;11.026;2024-01-07T07:11:44;0.45;;;0.45;;
39222;SDS011;24936;46.328;11.026;2024-01-07T07:14:10;0.40;;;0.40;;
39222;SDS011;24936;46.328;11.026;2024-01-07T07:16:35;0.40;;;0.40;;
39222;SDS011;24936;46.328;11.026;2024-01-07T07:19:01;0.40;;;0.40;;
39222;SDS011;24936;46.328;11.026;2024-01-07T07:21:27;0.30;;;0.30;;
39222;SDS011;24936;46.328;11.026;2024-01-07T07:23:52;0.70;;;0.70;;
39222;SDS011;24936;46.328;11.026;2024-01-07T07:26:18;0.80;;;0.80;;
39222;SDS011;24936;46.328;11.026;2024-01-07T07:28:43;1.73;;;1.60;;
39222;SDS011;24936;46.328;11.026;2024-01-07T07:31:10;0.98;;;0.88;;
39222;SDS011;24936;46.328;11.026;2024-01-07T07:33:38;1.02;;;0.73;;
39222;SDS011;24936;46.328;11.026;2024-01-07T07:36:06;1.00;;;0.77;;
39222;SDS011;24936;46.328;11.026;2024-01-07T07:38:32;0.90;;;0.90;;
39222;SDS011;24936;46.328;11.026;2024-01-07T07:41:01;0.93;;;0.85;;
39222;SDS011;24936;46.328;11.026;2024-01-07T07:43:27;1.10;;;0.88;;
39222;SDS011;24936;46.328;11.026;2024-01-07T07:45:53;0.93;;;0.93;;
39222;SDS011;24936;46.328;11.026;2024-01-07T07:48:18;1.27;;;0.90;;
39222;SDS011;24936;46.328;11.026;2024-01-07T07:50:44;0.57;;;0.57;;
39222;SDS011;24936;46.328;11.026;2024-01-07T07:53:10;1.35;;;1.10;;
39222;SDS011;24936;46.328;11.026;2024-01-07T07:55:35;1.88;;;1.70;;
39222;SDS011;24936;46.328;11.026;2024-01-07T07:58:00;0.57;;;0.57;;
39222;SDS011;24936;46.328;11.026;2024-01-07T08:00:26;0.68;;;0.68;;
39222;SDS011;24936;46.328;11.026;2024-01-07T08:02:51;0.40;;;0.40;;
39222;SDS011;24936;46.328;11.026;2024-01-07T08:05:17;1.60;;;1.17;;
39222;SDS011;24936;46.328;11.026;2024-01-07T08:07:42;0.88;;;0.88;;
39222;SDS011;24936;46.328;11.026;2024-01-07T08:10:08;0.60;;;0.60;;
39222;SDS011;24936;46.328;11.026;2024-01-07T08:12:34;1.33;;;1.15;;
39222;SDS011;24936;46.328;11.026;2024-01-07T08:14:59;0.40;;;0.40;;
39222;SDS011;24936;46.328;11.026;2024-01-07T08:17:25;0.40;;;0.40;;
39222;SDS011;24936;46.328;11.026;2024-01-07T08:19:50;0.70;;;0.68;;
39222;SDS011;24936;46.328;11.026;2024-01-07T08:22:16;0.95;;;0.60;;
39222;SDS011;24936;46.328;11.026;2024-01-07T08:24:41;0.47;;;0.47;;
39222;SDS011;24936;46.328;11.026;2024-01-07T08:27:07;0.77;;;0.77;;
39222;SDS011;24936;46.328;11.026;2024-01-07T08:29:33;1.50;;;1.40;;
39222;SDS011;24936;46.328;11.026;2024-01-07T08:31:58;0.80;;;0.80;;
39222;SDS011;24936;46.328;11.026;2024-01-07T08:34:24;1.25;;;0.90;;
39222;SDS011;24936;46.328;11.026;2024-01-07T08:36:50;0.30;;;0.30;;
39222;SDS011;24936;46.328;11.026;2024-01-07T08:39:15;0.50;;;0.50;;
39222;SDS011;24936;46.328;11.026;2024-01-07T08:41:41;0.50;;;0.50;;
39222;SDS011;24936;46.328;11.026;2024-01-07T08:44:06;4.82;;;0.70;;
39222;SDS011;24936;46.328;11.026;2024-01-07T08:46:35;0.47;;;0.47;;
39222;SDS011;24936;46.328;11.026;2024-01-07T08:49:01;0.30;;;0.30;;
39222;SDS011;24936;46.328;11.026;2024-01-07T08:51:27;1.02;;;1.02;;
39222;SDS011;24936;46.328;11.026;2024-01-07T08:53:52;0.22;;;0.22;;
39222;SDS011;24936;46.328;11.026;2024-01-07T08:56:18;0.40;;;0.40;;
39222;SDS011;24936;46.328;11.026;2024-01-07T08:58:43;0.35;;;0.35;;
39222;SDS011;24936;46.328;11.026;2024-01-07T09:01:08;0.50;;;0.50;;
39222;SDS011;24936;46.328;11.026;2024-01-07T09:03:34;0.73;;;0.63;;
39222;SDS011;24936;46.328;11.026;2024-01-07T09:05:59;0.70;;;0.70;;
39222;SDS011;24936;46.328;11.026;2024-01-07T09:08:25;0.95;;;0.60;;
39222;SDS011;24936;46.328;11.026;2024-01-07T09:10:51;2.38;;;1.38;;
39222;SDS011;24936;46.328;11.026;2024-01-07T09:13:16;4.55;;;2.03;;
39222;SDS011;24936;46.328;11.026;2024-01-07T09:15:41;0.60;;;0.60;;
39222;SDS011;24936;46.328;11.026;2024-01-07T09:18:07;0.50;;;0.50;;
39222;SDS011;24936;46.328;11.026;2024-01-07T09:20:32;0.80;;;0.80;;
39222;SDS011;24936;46.328;11.026;2024-01-07T09:22:59;1.00;;;0.90;;
39222;SDS011;24936;46.328;11.026;2024-01-07T09:25:24;2.67;;;1.88;;
39222;SDS011;24936;46.328;11.026;2024-01-07T09:27:51;1.40;;;1.30;;
39222;SDS011;24936;46.328;11.026;2024-01-07T09:30:17;1.10;;;1.00;;
39222;SDS011;24936;46.328;11.026;2024-01-07T09:32:43;0.63;;;0.63;;
39222;SDS011;24936;46.328;11.026;2024-01-07T09:35:08;1.23;;;0.90;;
39222;SDS011;24936;46.328;11.026;2024-01-07T09:37:34;1.67;;;1.13;;
39222;SDS011;24936;46.328;11.026;2024-01-07T09:40:00;0.88;;;0.88;;
39222;SDS011;24936;46.328;11.026;2024-01-07T09:42:26;0.75;;;0.75;;
39222;SDS011;24936;46.328;11.026;2024-01-07T09:44:52;0.82;;;0.77;;
39222;SDS011;24936;46.328;11.026;2024-01-07T09:47:17;0.98;;;0.80;;
39222;SDS011;24936;46.328;11.026;2024-01-07T09:49:43;0.40;;;0.40;;
39222;SDS011;24936;46.328;11.026;2024-01-07T09:52:10;0.90;;;0.60;;
39222;SDS011;24936;46.328;11.026;2024-01-07T09:54:36;0.88;;;0.63;;
39222;SDS011;24936;46.328;11.026;2024-01-07T09:57:04;1.88;;;1.27;;
39222;SDS011;24936;46.328;11.026;2024-01-07T09:59:33;0.50;;;0.50;;
39222;SDS011;24936;46.328;11.026;2024-01-07T10:02:00;1.35;;;0.60;;
39222;SDS011;24936;46.328;11.026;2024-01-07T10:04:26;1.30;;;1.15;;
39222;SDS011;24936;46.328;11.026;2024-01-07T10:06:53;0.73;;;0.73;;
39222;SDS011;24936;46.328;11.026;2024-01-07T10:09:19;0.75;;;0.75;;
39222;SDS011;24936;46.328;11.026;2024-01-07T10:11:51;2.85;;;1.88;;
39222;SDS011;24936;46.328;11.026;2024-01-07T10:14:17;6.82;;;4.20;;
39222;SDS011;24936;46.328;11.026;2024-01-07T10:16:42;4.97;;;3.47;;
39222;SDS011;24936;46.328;11.026;2024-01-07T10:19:08;3.42;;;3.13;;
39222;SDS011;24936;46.328;11.026;2024-01-07T10:21:33;1.60;;;1.50;;
39222;SDS011;24936;46.328;11.026;2024-01-07T10:24:12;4.97;;;3.25;;
39222;SDS011;24936;46.328;11.026;2024-01-07T10:26:39;1.73;;;1.60;;
39222;SDS011;24936;46.328;11.026;2024-01-07T10:29:06;1.33;;;1.23;;
39222;SDS011;24936;46.328;11.026;2024-01-07T10:31:33;1.50;;;1.15;;
39222;SDS011;24936;46.328;11.026;2024-01-07T10:33:59;0.90;;;0.90;;
39222;SDS011;24936;46.328;11.026;2024-01-07T10:36:25;0.50;;;0.50;;
39222;SDS011;24936;46.328;11.026;2024-01-07T10:38:51;0.70;;;0.70;;
39222;SDS011;24936;46.328;11.026;2024-01-07T10:41:19;0.60;;;0.60;;
39222;SDS011;24936;46.328;11.026;2024-01-07T10:43:48;0.90;;;0.90;;
39222;SDS011;24936;46.328;11.026;2024-01-07T10:46:15;0.85;;;0.85;;
39222;SDS011;24936;46.328;11.026;2024-01-07T10:48:54;2.63;;;2.35;;
39222;SDS011;24936;46.328;11.026;2024-01-07T10:51:23;1.33;;;1.23;;
39222;SDS011;24936;46.328;11.026;2024-01-07T10:53:52;0.63;;;0.60;;
39222;SDS011;24936;46.328;11.026;2024-01-07T10:56:20;1.48;;;1.38;;
39222;SDS011;24936;46.328;11.026;2024-01-07T10:58:48;0.77;;;0.77;;
39222;SDS011;24936;46.328;11.026;2024-01-07T11:01:16;1.40;;;1.30;;
39222;SDS011;24936;46.328;11.026;2024-01-07T11:03:48;3.25;;;2.17;;
39222;SDS011;24936;46.328;11.026;2024-01-07T11:12:13;1.05;;;0.82;;
39222;SDS011;24936;46.328;11.026;2024-01-07T11:14:40;2.78;;;1.33;;
39222;SDS011;24936;46.328;11.026;2024-01-07T11:17:10;1.55;;;0.80;;
39222;SDS011;24936;46.328;11.026;2024-01-07T11:19:36;1.90;;;1.27;;
39222;SDS011;24936;46.328;11.026;2024-01-07T11:24:52;3.38;;;1.85;;
39222;SDS011;24936;46.328;11.026;2024-01-07T11:27:18;0.93;;;0.88;;
39222;SDS011;24936;46.328;11.026;2024-01-07T11:29:55;0.55;;;0.55;;
39222;SDS011;24936;46.328;11.026;2024-01-07T11:32:28;1.92;;;1.10;;
39222;SDS011;24936;46.328;11.026;2024-01-07T11:34:54;1.20;;;1.10;;
39222;SDS011;24936;46.328;11.026;2024-01-07T11:37:24;0.43;;;0.43;;
39222;SDS011;24936;46.328;11.026;2024-01-07T11:39:51;1.95;;;0.50;;
39222;SDS011;24936;46.328;11.026;2024-01-07T11:42:20;0.63;;;0.63;;
39222;SDS011;24936;46.328;11.026;2024-01-07T11:44:51;1.30;;;1.00;;
39222;SDS011;24936;46.328;11.026;2024-01-07T11:47:18;3.10;;;1.02;;
39222;SDS011;24936;46.328;11.026;2024-01-07T11:49:45;1.27;;;0.90;;
39222;SDS011;24936;46.328;11.026;2024-01-07T11:52:11;2.25;;;2.05;;
39222;SDS011;24936;46.328;11.026;2024-01-07T11:54:38;2.10;;;1.90;;
39222;SDS011;24936;46.328;11.026;2024-01-07T11:57:04;2.55;;;1.83;;
39222;SDS011;24936;46.328;11.026;2024-01-07T11:59:35;2.97;;;2.42;;
39222;SDS011;24936;46.328;11.026;2024-01-07T12:02:04;5.75;;;3.05;;
39222;SDS011;24936;46.328;11.026;2024-01-07T12:04:31;5.82;;;3.78;;
39222;SDS011;24936;46.328;11.026;2024-01-07T12:06:57;4.75;;;4.35;;
39222;SDS011;24936;46.328;11.026;2024-01-07T12:09:22;6.13;;;4.35;;
39222;SDS011;24936;46.328;11.026;2024-01-07T12:11:48;4.40;;;3.50;;
39222;SDS011;24936;46.328;11.026;2024-01-07T12:14:14;5.25;;;2.28;;
39222;SDS011;24936;46.328;11.026;2024-01-07T12:16:40;5.30;;;4.25;;
39222;SDS011;24936;46.328;11.026;2024-01-07T12:19:05;4.47;;;4.03;;
39222;SDS011;24936;46.328;11.026;2024-01-07T12:21:33;5.70;;;4.50;;
39222;SDS011;24936;46.328;11.026;2024-01-07T12:23:58;4.28;;;3.88;;
39222;SDS011;24936;46.328;11.026;2024-01-07T12:26:27;6.80;;;4.45;;
39222;SDS011;24936;46.328;11.026;2024-01-07T12:28:53;5.43;;;3.53;;
39222;SDS011;24936;46.328;11.026;2024-01-07T12:31:20;5.68;;;4.93;;
39222;SDS011;24936;46.328;11.026;2024-01-07T12:33:46;5.97;;;4.82;;
39222;SDS011;24936;46.328;11.026;2024-01-07T12:36:12;5.70;;;3.65;;
39222;SDS011;24936;46.328;11.026;2024-01-07T12:38:38;5.13;;;3.00;;
39222;SDS011;24936;46.328;11.026;2024-01-07T12:41:03;4.82;;;3.35;;
39222;SDS011;24936;46.328;11.026;2024-01-07T12:43:29;3.65;;;3.13;;
39222;SDS011;24936;46.328;11.026;2024-01-07T12:45:55;5.47;;;4.68;;
39222;SDS011;24936;46.328;11.026;2024-01-07T12:48:21;6.85;;;5.00;;
39222;SDS011;24936;46.328;11.026;2024-01-07T12:50:48;9.18;;;5.50;;
39222;SDS011;24936;46.328;11.026;2024-01-07T12:53:13;6.32;;;4.68;;
39222;SDS011;24936;46.328;11.026;2024-01-07T12:55:39;3.35;;;3.05;;
39222;SDS011;24936;46.328;11.026;2024-01-07T12:58:05;4.47;;;2.97;;
39222;SDS011;24936;46.328;11.026;2024-01-07T13:00:30;2.63;;;2.42;;
39222;SDS011;24936;46.328;11.026;2024-01-07T13:02:56;2.58;;;2.10;;
39222;SDS011;24936;46.328;11.026;2024-01-07T13:05:22;2.72;;;2.35;;
39222;SDS011;24936;46.328;11.026;2024-01-07T13:07:48;3.30;;;3.00;;
39222;SDS011;24936;46.328;11.026;2024-01-07T13:10:15;4.05;;;2.85;;
39222;SDS011;24936;46.328;11.026;2024-01-07T13:12:40;3.63;;;3.33;;
39222;SDS011;24936;46.328;11.026;2024-01-07T13:15:06;4.43;;;3.88;;
39222;SDS011;24936;46.328;11.026;2024-01-07T13:17:32;3.13;;;2.75;;
39222;SDS011;24936;46.328;11.026;2024-01-07T13:20:00;4.55;;;1.92;;
39222;SDS011;24936;46.328;11.026;2024-01-07T13:22:26;2.58;;;1.83;;
39222;SDS011;24936;46.328;11.026;2024-01-07T13:24:51;6.03;;;4.03;;
39222;SDS011;24936;46.328;11.026;2024-01-07T13:27:19;8.10;;;4.85;;
39222;SDS011;24936;46.328;11.026;2024-01-07T13:29:46;6.03;;;4.80;;
39222;SDS011;24936;46.328;11.026;2024-01-07T13:32:12;6.82;;;5.38;;
39222;SDS011;24936;46.328;11.026;2024-01-07T13:37:07;12.40;;;8.52;;
39222;SDS011;24936;46.328;11.026;2024-01-07T13:39:33;14.55;;;10.27;;
39222;SDS011;24936;46.328;11.026;2024-01-07T13:41:58;4.05;;;2.83;;
39222;SDS011;24936;46.328;11.026;2024-01-07T13:44:24;3.35;;;2.20;;
39222;SDS011;24936;46.328;11.026;2024-01-07T13:46:49;5.32;;;2.88;;
39222;SDS011;24936;46.328;11.026;2024-01-07T13:49:17;2.67;;;2.33;;
39222;SDS011;24936;46.328;11.026;2024-01-07T13:51:44;1.77;;;1.42;;
39222;SDS011;24936;46.328;11.026;2024-01-07T13:54:09;2.10;;;1.27;;
39222;SDS011;24936;46.328;11.026;2024-01-07T13:56:42;1.92;;;1.80;;
39222;SDS011;24936;46.328;11.026;2024-01-07T13:59:09;1.15;;;0.98;;
39222;SDS011;24936;46.328;11.026;2024-01-07T14:01:35;2.00;;;1.80;;
39222;SDS011;24936;46.328;11.026;2024-01-07T14:04:01;0.60;;;0.60;;
39222;SDS011;24936;46.328;11.026;2024-01-07T14:06:26;0.95;;;0.80;;
39222;SDS011;24936;46.328;11.026;2024-01-07T14:08:52;1.98;;;1.30;;
39222;SDS011;24936;46.328;11.026;2024-01-07T14:11:18;2.30;;;0.65;;
39222;SDS011;24936;46.328;11.026;2024-01-07T14:13:53;1.77;;;0.98;;
39222;SDS011;24936;46.328;11.026;2024-01-07T14:16:19;1.38;;;0.80;;
39222;SDS011;24936;46.328;11.026;2024-01-07T14:18:44;5.13;;;2.65;;
39222;SDS011;24936;46.328;11.026;2024-01-07T14:21:10;5.32;;;2.42;;
39222;SDS011;24936;46.328;11.026;2024-01-07T14:23:35;5.40;;;2.75;;
39222;SDS011;24936;46.328;11.026;2024-01-07T14:26:01;3.83;;;2.25;;
39222;SDS011;24936;46.328;11.026;2024-01-07T14:28:27;5.30;;;3.78;;
39222;SDS011;24936;46.328;11.026;2024-01-07T14:30:53;3.78;;;2.45;;
39222;SDS011;24936;46.328;11.026;2024-01-07T14:33:24;5.68;;;4.35;;
39222;SDS011;24936;46.328;11.026;2024-01-07T14:35:55;5.82;;;4.63;;
39222;SDS011;24936;46.328;11.026;2024-01-07T14:38:21;6.40;;;2.75;;
39222;SDS011;24936;46.328;11.026;2024-01-07T14:40:47;5.93;;;2.75;;